sensor_id;sensor_type;location;lat;lon;timestamp;P1;durP1;ratioP1;P2;durP2;ratioP2
7479;SDS011;3781;42.272;22.658;2022-11-20T00:01:09;1.30;;;0.40;;
7479;SDS011;3781;42.272;22.658;2022-11-20T00:03:38;0.27;;;0.27;;
7479;SDS011;3781;42.272;22.658;2022-11-20T00:06:06;0.40;;;0.20;;
7479;SDS011;3781;42.272;22.658;2022-11-20T00:08:33;0.30;;;0.20;;
7479;SDS011;3781;42.272;22.658;2022-11-20T00:11:02;6.90;;;0.40;;
7479;SDS011;3781;42.272;22.658;2022-11-20T00:13:30;0.27;;;0.27;;
7479;SDS011;3781;42.272;22.658;2022-11-20T00:15:58;2.20;;;0.50;;
7479;SDS011;3781;42.272;22.658;2022-11-20T00:18:26;0.43;;;0.40;;
7479;SDS011;3781;42.272;22.658;2022-11-20T00:20:54;0.60;;;0.53;;
7479;SDS011;3781;42.272;22.658;2022-11-20T00:23:28;5.43;;;0.97;;
7479;SDS011;3781;42.272;22.658;2022-11-20T00:25:55;1.03;;;0.40;;
7479;SDS011;3781;42.272;22.658;2022-11-20T00:28:21;1.00;;;0.50;;
7479;SDS011;3781;42.272;22.658;2022-11-20T00:30:48;0.60;;;0.37;;
7479;SDS011;3781;42.272;22.658;2022-11-20T00:33:16;0.30;;;0.30;;
7479;SDS011;3781;42.272;22.658;2022-11-20T00:35:43;0.30;;;0.30;;
7479;SDS011;3781;42.272;22.658;2022-11-20T00:38:10;1.97;;;0.73;;
7479;SDS011;3781;42.272;22.658;2022-11-20T00:40:37;0.10;;;0.10;;
7479;SDS011;3781;42.272;22.658;2022-11-20T00:43:03;1.97;;;1.03;;
7479;SDS011;3781;42.272;22.658;2022-11-20T00:45:30;0.33;;;0.20;;
7479;SDS011;3781;42.272;22.658;2022-11-20T00:47:57;0.10;;;0.10;;
7479;SDS011;3781;42.272;22.658;2022-11-20T00:50:25;1.03;;;0.50;;
7479;SDS011;3781;42.272;22.658;2022-11-20T00:52:52;0.20;;;0.20;;
7479;SDS011;3781;42.272;22.658;2022-11-20T00:55:18;0.27;;;0.27;;
7479;SDS011;3781;42.272;22.658;2022-11-20T00:57:45;0.20;;;0.20;;
7479;SDS011;3781;42.272;22.658;2022-11-20T01:00:12;0.63;;;0.63;;
7479;SDS011;3781;42.272;22.658;2022-11-20T01:02:39;1.50;;;0.50;;
7479;SDS011;3781;42.272;22.658;2022-11-20T01:05:06;0.20;;;0.20;;
7479;SDS011;3781;42.272;22.658;2022-11-20T01:07:34;0.07;;;0.07;;
7479;SDS011;3781;42.272;22.658;2022-11-20T01:10:01;0.33;;;0.30;;
7479;SDS011;3781;42.272;22.658;2022-11-20T01:12:28;2.37;;;0.43;;
7479;SDS011;3781;42.272;22.658;2022-11-20T01:14:55;9.33;;;0.40;;
7479;SDS011;3781;42.272;22.658;2022-11-20T01:17:21;0.10;;;0.10;;
7479;SDS011;3781;42.272;22.658;2022-11-20T01:19:48;0.30;;;0.30;;
7479;SDS011;3781;42.272;22.658;2022-11-20T01:22:15;0.53;;;0.53;;
7479;SDS011;3781;42.272;22.658;2022-11-20T01:24:44;2.03;;;0.40;;
7479;SDS011;3781;42.272;22.658;2022-11-20T01:27:10;1.70;;;0.30;;
7479;SDS011;3781;42.272;22.658;2022-11-20T01:29:37;1.13;;;1.03;;
7479;SDS011;3781;42.272;22.658;2022-11-20T01:32:04;2.83;;;0.60;;
7479;SDS011;3781;42.272;22.658;2022-11-20T01:34:31;6.93;;;0.30;;
7479;SDS011;3781;42.272;22.658;2022-11-20T01:36:57;0.17;;;0.17;;
7479;SDS011;3781;42.272;22.658;2022-11-20T01:39:25;0.00;;;0.00;;
7479;SDS011;3781;42.272;22.658;2022-11-20T01:41:54;0.23;;;0.23;;
7479;SDS011;3781;42.272;22.658;2022-11-20T01:44:48;1.00;;;0.40;;
7479;SDS011;3781;42.272;22.658;2022-11-20T01:47:17;6.13;;;0.40;;
7479;SDS011;3781;42.272;22.658;2022-11-20T01:49:52;1.80;;;0.23;;
7479;SDS011;3781;42.272;22.658;2022-11-20T01:52:23;0.37;;;0.30;;
7479;SDS011;3781;42.272;22.658;2022-11-20T01:54:54;0.63;;;0.37;;
7479;SDS011;3781;42.272;22.658;2022-11-20T01:57:26;0.00;;;0.00;;
7479;SDS011;3781;42.272;22.658;2022-11-20T01:59:57;0.10;;;0.10;;
7479;SDS011;3781;42.272;22.658;2022-11-20T02:02:27;0.67;;;0.20;;
7479;SDS011;3781;42.272;22.658;2022-11-20T02:04:54;0.03;;;0.03;;
7479;SDS011;3781;42.272;22.658;2022-11-20T02:07:26;0.20;;;0.20;;
7479;SDS011;3781;42.272;22.658;2022-11-20T02:09:52;0.00;;;0.00;;
7479;SDS011;3781;42.272;22.658;2022-11-20T02:12:19;0.10;;;0.10;;
7479;SDS011;3781;42.272;22.658;2022-11-20T02:15:05;0.10;;;0.10;;
7479;SDS011;3781;42.272;22.658;2022-11-20T02:17:32;0.10;;;0.10;;
7479;SDS011;3781;42.272;22.658;2022-11-20T02:19:59;0.30;;;0.17;;
7479;SDS011;3781;42.272;22.658;2022-11-20T02:22:27;1.13;;;0.20;;
7479;SDS011;3781;42.272;22.658;2022-11-20T02:24:58;0.53;;;0.53;;
7479;SDS011;3781;42.272;22.658;2022-11-20T02:27:28;0.10;;;0.10;;
7479;SDS011;3781;42.272;22.658;2022-11-20T02:29:56;0.43;;;0.30;;
7479;SDS011;3781;42.272;22.658;2022-11-20T02:32:26;0.20;;;0.20;;
7479;SDS011;3781;42.272;22.658;2022-11-20T02:34:54;6.50;;;0.17;;
7479;SDS011;3781;42.272;22.658;2022-11-20T02:37:22;0.33;;;0.20;;
7479;SDS011;3781;42.272;22.658;2022-11-20T02:39:49;0.30;;;0.20;;
7479;SDS011;3781;42.272;22.658;2022-11-20T02:42:19;0.40;;;0.40;;
7479;SDS011;3781;42.272;22.658;2022-11-20T02:44:45;0.50;;;0.20;;
7479;SDS011;3781;42.272;22.658;2022-11-20T02:47:12;0.83;;;0.20;;
7479;SDS011;3781;42.272;22.658;2022-11-20T02:49:39;0.00;;;0.00;;
7479;SDS011;3781;42.272;22.658;2022-11-20T02:52:06;0.10;;;0.10;;
7479;SDS011;3781;42.272;22.658;2022-11-20T02:54:33;1.10;;;0.07;;
7479;SDS011;3781;42.272;22.658;2022-11-20T02:56:59;0.47;;;0.47;;
7479;SDS011;3781;42.272;22.658;2022-11-20T02:59:27;0.10;;;0.10;;
7479;SDS011;3781;42.272;22.658;2022-11-20T03:01:54;0.10;;;0.10;;
7479;SDS011;3781;42.272;22.658;2022-11-20T03:04:21;0.40;;;0.40;;
7479;SDS011;3781;42.272;22.658;2022-11-20T03:06:47;0.13;;;0.10;;
7479;SDS011;3781;42.272;22.658;2022-11-20T03:09:14;0.00;;;0.00;;
7479;SDS011;3781;42.272;22.658;2022-11-20T03:11:41;0.77;;;0.77;;
7479;SDS011;3781;42.272;22.658;2022-11-20T03:14:08;0.20;;;0.20;;
7479;SDS011;3781;42.272;22.658;2022-11-20T03:16:36;0.13;;;0.13;;
7479;SDS011;3781;42.272;22.658;2022-11-20T03:19:03;0.20;;;0.20;;
7479;SDS011;3781;42.272;22.658;2022-11-20T03:21:30;0.00;;;0.00;;
7479;SDS011;3781;42.272;22.658;2022-11-20T03:23:56;0.20;;;0.10;;
7479;SDS011;3781;42.272;22.658;2022-11-20T03:26:23;0.20;;;0.20;;
7479;SDS011;3781;42.272;22.658;2022-11-20T03:28:52;0.10;;;0.10;;
7479;SDS011;3781;42.272;22.658;2022-11-20T03:31:21;0.20;;;0.20;;
7479;SDS011;3781;42.272;22.658;2022-11-20T03:33:50;3.07;;;0.23;;
7479;SDS011;3781;42.272;22.658;2022-11-20T03:36:18;0.40;;;0.20;;
7479;SDS011;3781;42.272;22.658;2022-11-20T03:38:45;0.03;;;0.00;;
7479;SDS011;3781;42.272;22.658;2022-11-20T03:41:13;0.33;;;0.33;;
7479;SDS011;3781;42.272;22.658;2022-11-20T03:43:41;0.97;;;0.73;;
7479;SDS011;3781;42.272;22.658;2022-11-20T03:46:08;5.40;;;0.90;;
7479;SDS011;3781;42.272;22.658;2022-11-20T03:48:35;0.00;;;0.00;;
7479;SDS011;3781;42.272;22.658;2022-11-20T03:51:10;0.07;;;0.07;;
7479;SDS011;3781;42.272;22.658;2022-11-20T03:53:38;2.00;;;0.20;;
7479;SDS011;3781;42.272;22.658;2022-11-20T03:56:06;0.50;;;0.20;;
7479;SDS011;3781;42.272;22.658;2022-11-20T03:58:33;0.20;;;0.00;;
7479;SDS011;3781;42.272;22.658;2022-11-20T04:01:05;0.00;;;0.00;;
7479;SDS011;3781;42.272;22.658;2022-11-20T04:03:33;0.13;;;0.13;;
7479;SDS011;3781;42.272;22.658;2022-11-20T04:06:04;0.00;;;0.00;;
7479;SDS011;3781;42.272;22.658;2022-11-20T04:08:33;0.20;;;0.20;;
7479;SDS011;3781;42.272;22.658;2022-11-20T04:11:10;0.30;;;0.30;;
7479;SDS011;3781;42.272;22.658;2022-11-20T04:13:38;0.20;;;0.20;;
7479;SDS011;3781;42.272;22.658;2022-11-20T04:16:06;0.00;;;0.00;;
7479;SDS011;3781;42.272;22.658;2022-11-20T04:18:33;0.10;;;0.10;;
7479;SDS011;3781;42.272;22.658;2022-11-20T04:21:00;0.20;;;0.20;;
7479;SDS011;3781;42.272;22.658;2022-11-20T04:23:28;0.00;;;0.00;;
7479;SDS011;3781;42.272;22.658;2022-11-20T04:26:00;0.97;;;0.23;;
7479;SDS011;3781;42.272;22.658;2022-11-20T04:28:28;0.23;;;0.00;;
7479;SDS011;3781;42.272;22.658;2022-11-20T04:31:00;1.80;;;0.73;;
7479;SDS011;3781;42.272;22.658;2022-11-20T04:33:28;0.00;;;0.00;;
7479;SDS011;3781;42.272;22.658;2022-11-20T04:35:54;0.20;;;0.10;;
7479;SDS011;3781;42.272;22.658;2022-11-20T04:38:21;0.40;;;0.30;;
7479;SDS011;3781;42.272;22.658;2022-11-20T04:40:48;0.53;;;0.17;;
7479;SDS011;3781;42.272;22.658;2022-11-20T04:43:16;0.03;;;0.03;;
7479;SDS011;3781;42.272;22.658;2022-11-20T04:45:43;0.00;;;0.00;;
7479;SDS011;3781;42.272;22.658;2022-11-20T04:48:16;6.70;;;0.20;;
7479;SDS011;3781;42.272;22.658;2022-11-20T04:50:43;1.50;;;0.50;;
7479;SDS011;3781;42.272;22.658;2022-11-20T04:53:10;0.40;;;0.40;;
7479;SDS011;3781;42.272;22.658;2022-11-20T04:55:37;0.67;;;0.20;;
7479;SDS011;3781;42.272;22.658;2022-11-20T04:58:03;0.00;;;0.00;;
7479;SDS011;3781;42.272;22.658;2022-11-20T05:00:31;0.40;;;0.20;;
7479;SDS011;3781;42.272;22.658;2022-11-20T05:02:58;0.17;;;0.17;;
7479;SDS011;3781;42.272;22.658;2022-11-20T05:05:25;0.20;;;0.20;;
7479;SDS011;3781;42.272;22.658;2022-11-20T05:07:52;0.17;;;0.17;;
7479;SDS011;3781;42.272;22.658;2022-11-20T05:10:18;0.40;;;0.40;;
7479;SDS011;3781;42.272;22.658;2022-11-20T05:12:45;0.30;;;0.27;;
7479;SDS011;3781;42.272;22.658;2022-11-20T05:15:19;0.30;;;0.30;;
7479;SDS011;3781;42.272;22.658;2022-11-20T05:17:48;0.20;;;0.20;;
7479;SDS011;3781;42.272;22.658;2022-11-20T05:20:15;0.00;;;0.00;;
7479;SDS011;3781;42.272;22.658;2022-11-20T05:22:42;0.20;;;0.20;;
7479;SDS011;3781;42.272;22.658;2022-11-20T05:25:09;0.20;;;0.20;;
7479;SDS011;3781;42.272;22.658;2022-11-20T05:27:36;1.07;;;0.10;;
7479;SDS011;3781;42.272;22.658;2022-11-20T05:30:04;0.10;;;0.10;;
7479;SDS011;3781;42.272;22.658;2022-11-20T05:32:32;0.33;;;0.33;;
7479;SDS011;3781;42.272;22.658;2022-11-20T05:35:00;0.40;;;0.30;;
7479;SDS011;3781;42.272;22.658;2022-11-20T05:37:27;0.10;;;0.10;;
7479;SDS011;3781;42.272;22.658;2022-11-20T05:39:54;0.03;;;0.03;;
7479;SDS011;3781;42.272;22.658;2022-11-20T05:42:23;0.60;;;0.57;;
7479;SDS011;3781;42.272;22.658;2022-11-20T05:44:56;1.50;;;0.20;;
7479;SDS011;3781;42.272;22.658;2022-11-20T05:47:23;0.20;;;0.20;;
7479;SDS011;3781;42.272;22.658;2022-11-20T05:49:49;0.30;;;0.10;;
7479;SDS011;3781;42.272;22.658;2022-11-20T05:52:17;1.30;;;0.20;;
7479;SDS011;3781;42.272;22.658;2022-11-20T05:54:44;0.20;;;0.20;;
7479;SDS011;3781;42.272;22.658;2022-11-20T05:57:11;0.10;;;0.10;;
7479;SDS011;3781;42.272;22.658;2022-11-20T05:59:37;0.27;;;0.27;;
7479;SDS011;3781;42.272;22.658;2022-11-20T06:02:04;0.73;;;0.10;;
7479;SDS011;3781;42.272;22.658;2022-11-20T06:04:31;0.50;;;0.20;;
7479;SDS011;3781;42.272;22.658;2022-11-20T06:06:58;0.27;;;0.27;;
7479;SDS011;3781;42.272;22.658;2022-11-20T06:09:26;0.20;;;0.20;;
7479;SDS011;3781;42.272;22.658;2022-11-20T06:11:52;0.10;;;0.10;;
7479;SDS011;3781;42.272;22.658;2022-11-20T06:14:19;1.40;;;1.00;;
7479;SDS011;3781;42.272;22.658;2022-11-20T06:16:46;1.17;;;0.50;;
7479;SDS011;3781;42.272;22.658;2022-11-20T06:19:13;0.30;;;0.10;;
7479;SDS011;3781;42.272;22.658;2022-11-20T06:21:40;0.67;;;0.67;;
7479;SDS011;3781;42.272;22.658;2022-11-20T06:24:08;1.27;;;0.30;;
7479;SDS011;3781;42.272;22.658;2022-11-20T06:26:37;0.83;;;0.70;;
7479;SDS011;3781;42.272;22.658;2022-11-20T06:29:03;0.40;;;0.40;;
7479;SDS011;3781;42.272;22.658;2022-11-20T06:31:30;2.93;;;1.57;;
7479;SDS011;3781;42.272;22.658;2022-11-20T06:33:59;1.40;;;0.90;;
7479;SDS011;3781;42.272;22.658;2022-11-20T06:36:27;1.50;;;1.40;;
7479;SDS011;3781;42.272;22.658;2022-11-20T06:38:54;1.70;;;1.03;;
7479;SDS011;3781;42.272;22.658;2022-11-20T06:41:21;2.10;;;1.63;;
7479;SDS011;3781;42.272;22.658;2022-11-20T06:43:49;1.50;;;1.33;;
7479;SDS011;3781;42.272;22.658;2022-11-20T06:46:17;3.50;;;0.97;;
7479;SDS011;3781;42.272;22.658;2022-11-20T06:48:44;2.00;;;1.00;;
7479;SDS011;3781;42.272;22.658;2022-11-20T06:51:11;4.60;;;1.27;;
7479;SDS011;3781;42.272;22.658;2022-11-20T06:53:38;4.57;;;2.17;;
7479;SDS011;3781;42.272;22.658;2022-11-20T06:56:05;2.40;;;1.57;;
7479;SDS011;3781;42.272;22.658;2022-11-20T06:58:33;5.13;;;3.17;;
7479;SDS011;3781;42.272;22.658;2022-11-20T07:01:02;3.60;;;3.20;;
7479;SDS011;3781;42.272;22.658;2022-11-20T07:03:31;10.40;;;4.80;;
7479;SDS011;3781;42.272;22.658;2022-11-20T07:05:58;0.60;;;0.60;;
7479;SDS011;3781;42.272;22.658;2022-11-20T07:08:26;0.80;;;0.80;;
7479;SDS011;3781;42.272;22.658;2022-11-20T07:10:56;4.17;;;0.90;;
7479;SDS011;3781;42.272;22.658;2022-11-20T07:13:24;0.93;;;0.93;;
7479;SDS011;3781;42.272;22.658;2022-11-20T07:15:51;1.10;;;0.77;;
7479;SDS011;3781;42.272;22.658;2022-11-20T07:18:19;0.37;;;0.30;;
7479;SDS011;3781;42.272;22.658;2022-11-20T07:20:46;1.17;;;0.60;;
7479;SDS011;3781;42.272;22.658;2022-11-20T07:23:13;2.30;;;0.90;;
7479;SDS011;3781;42.272;22.658;2022-11-20T07:25:40;0.77;;;0.60;;
7479;SDS011;3781;42.272;22.658;2022-11-20T07:28:07;0.83;;;0.57;;
7479;SDS011;3781;42.272;22.658;2022-11-20T07:30:35;0.90;;;0.47;;
7479;SDS011;3781;42.272;22.658;2022-11-20T07:33:03;0.33;;;0.33;;
7479;SDS011;3781;42.272;22.658;2022-11-20T07:35:31;1.07;;;0.70;;
7479;SDS011;3781;42.272;22.658;2022-11-20T07:37:58;2.57;;;1.83;;
7479;SDS011;3781;42.272;22.658;2022-11-20T07:40:25;2.30;;;0.47;;
7479;SDS011;3781;42.272;22.658;2022-11-20T07:42:53;1.60;;;0.37;;
7479;SDS011;3781;42.272;22.658;2022-11-20T07:45:22;0.40;;;0.40;;
7479;SDS011;3781;42.272;22.658;2022-11-20T07:47:49;2.07;;;0.77;;
7479;SDS011;3781;42.272;22.658;2022-11-20T07:50:16;2.60;;;2.40;;
7479;SDS011;3781;42.272;22.658;2022-11-20T07:52:45;4.33;;;3.23;;
7479;SDS011;3781;42.272;22.658;2022-11-20T07:55:12;3.50;;;1.83;;
7479;SDS011;3781;42.272;22.658;2022-11-20T07:57:39;13.67;;;2.70;;
7479;SDS011;3781;42.272;22.658;2022-11-20T08:00:07;4.47;;;1.73;;
7479;SDS011;3781;42.272;22.658;2022-11-20T08:02:36;3.00;;;1.20;;
7479;SDS011;3781;42.272;22.658;2022-11-20T08:05:04;3.87;;;1.90;;
7479;SDS011;3781;42.272;22.658;2022-11-20T08:07:34;5.73;;;1.43;;
7479;SDS011;3781;42.272;22.658;2022-11-20T08:10:03;9.17;;;5.37;;
7479;SDS011;3781;42.272;22.658;2022-11-20T08:12:31;1.47;;;1.37;;
7479;SDS011;3781;42.272;22.658;2022-11-20T08:15:15;2.87;;;2.43;;
7479;SDS011;3781;42.272;22.658;2022-11-20T08:17:41;2.23;;;1.57;;
7479;SDS011;3781;42.272;22.658;2022-11-20T08:20:08;2.27;;;0.97;;
7479;SDS011;3781;42.272;22.658;2022-11-20T08:22:35;2.10;;;1.77;;
7479;SDS011;3781;42.272;22.658;2022-11-20T08:25:04;0.87;;;0.80;;
7479;SDS011;3781;42.272;22.658;2022-11-20T08:27:31;0.90;;;0.90;;
7479;SDS011;3781;42.272;22.658;2022-11-20T08:29:58;0.60;;;0.60;;
7479;SDS011;3781;42.272;22.658;2022-11-20T08:32:24;4.47;;;1.30;;
7479;SDS011;3781;42.272;22.658;2022-11-20T08:34:51;5.17;;;1.50;;
7479;SDS011;3781;42.272;22.658;2022-11-20T08:37:18;3.80;;;1.70;;
7479;SDS011;3781;42.272;22.658;2022-11-20T08:39:45;3.77;;;2.90;;
7479;SDS011;3781;42.272;22.658;2022-11-20T08:42:13;12.23;;;3.03;;
7479;SDS011;3781;42.272;22.658;2022-11-20T08:44:40;5.20;;;3.27;;
7479;SDS011;3781;42.272;22.658;2022-11-20T08:47:08;3.37;;;2.23;;
7479;SDS011;3781;42.272;22.658;2022-11-20T08:49:34;2.73;;;2.40;;
7479;SDS011;3781;42.272;22.658;2022-11-20T08:52:01;3.87;;;2.27;;
7479;SDS011;3781;42.272;22.658;2022-11-20T08:54:28;3.00;;;2.17;;
7479;SDS011;3781;42.272;22.658;2022-11-20T08:56:55;1.70;;;1.47;;
7479;SDS011;3781;42.272;22.658;2022-11-20T08:59:23;1.97;;;1.73;;
7479;SDS011;3781;42.272;22.658;2022-11-20T09:01:50;4.80;;;2.00;;
7479;SDS011;3781;42.272;22.658;2022-11-20T09:04:16;3.57;;;2.80;;
7479;SDS011;3781;42.272;22.658;2022-11-20T09:06:43;7.80;;;2.67;;
7479;SDS011;3781;42.272;22.658;2022-11-20T09:09:10;4.53;;;3.10;;
7479;SDS011;3781;42.272;22.658;2022-11-20T09:11:37;7.67;;;3.47;;
7479;SDS011;3781;42.272;22.658;2022-11-20T09:14:03;5.50;;;2.53;;
7479;SDS011;3781;42.272;22.658;2022-11-20T09:16:32;3.80;;;1.47;;
7479;SDS011;3781;42.272;22.658;2022-11-20T09:18:58;0.90;;;0.87;;
7479;SDS011;3781;42.272;22.658;2022-11-20T09:21:25;2.10;;;0.90;;
7479;SDS011;3781;42.272;22.658;2022-11-20T09:23:52;2.57;;;1.27;;
7479;SDS011;3781;42.272;22.658;2022-11-20T09:26:19;2.90;;;1.30;;
7479;SDS011;3781;42.272;22.658;2022-11-20T09:28:45;4.93;;;1.40;;
7479;SDS011;3781;42.272;22.658;2022-11-20T09:31:15;2.17;;;1.60;;
7479;SDS011;3781;42.272;22.658;2022-11-20T09:33:49;1.20;;;1.10;;
7479;SDS011;3781;42.272;22.658;2022-11-20T09:36:16;3.70;;;2.40;;
7479;SDS011;3781;42.272;22.658;2022-11-20T09:38:43;3.30;;;1.20;;
7479;SDS011;3781;42.272;22.658;2022-11-20T09:41:23;3.20;;;1.77;;
7479;SDS011;3781;42.272;22.658;2022-11-20T09:44:19;3.17;;;1.70;;
7479;SDS011;3781;42.272;22.658;2022-11-20T09:47:00;3.83;;;1.73;;
7479;SDS011;3781;42.272;22.658;2022-11-20T09:49:36;8.30;;;2.83;;
7479;SDS011;3781;42.272;22.658;2022-11-20T09:52:20;8.57;;;3.37;;
7479;SDS011;3781;42.272;22.658;2022-11-20T09:54:56;5.43;;;1.50;;
7479;SDS011;3781;42.272;22.658;2022-11-20T09:57:26;10.23;;;2.20;;
7479;SDS011;3781;42.272;22.658;2022-11-20T09:59:59;13.57;;;1.50;;
7479;SDS011;3781;42.272;22.658;2022-11-20T10:02:28;1.23;;;1.10;;
7479;SDS011;3781;42.272;22.658;2022-11-20T10:05:04;2.93;;;0.97;;
7479;SDS011;3781;42.272;22.658;2022-11-20T10:07:39;3.03;;;1.37;;
7479;SDS011;3781;42.272;22.658;2022-11-20T10:10:14;3.17;;;1.57;;
7479;SDS011;3781;42.272;22.658;2022-11-20T10:12:46;1.17;;;1.07;;
7479;SDS011;3781;42.272;22.658;2022-11-20T10:15:26;0.50;;;0.50;;
7479;SDS011;3781;42.272;22.658;2022-11-20T10:18:09;2.27;;;0.93;;
7479;SDS011;3781;42.272;22.658;2022-11-20T10:20:48;2.30;;;0.40;;
7479;SDS011;3781;42.272;22.658;2022-11-20T10:23:25;12.87;;;2.43;;
7479;SDS011;3781;42.272;22.658;2022-11-20T10:26:04;0.00;;;0.00;;
7479;SDS011;3781;42.272;22.658;2022-11-20T10:28:46;0.13;;;0.00;;
7479;SDS011;3781;42.272;22.658;2022-11-20T10:31:25;0.00;;;0.00;;
7479;SDS011;3781;42.272;22.658;2022-11-20T10:33:56;0.20;;;0.10;;
7479;SDS011;3781;42.272;22.658;2022-11-20T10:36:28;2.43;;;0.17;;
7479;SDS011;3781;42.272;22.658;2022-11-20T10:39:01;1.03;;;0.57;;
7479;SDS011;3781;42.272;22.658;2022-11-20T10:41:41;3.47;;;1.40;;
7479;SDS011;3781;42.272;22.658;2022-11-20T10:44:09;3.63;;;1.53;;
7479;SDS011;3781;42.272;22.658;2022-11-20T10:47:01;0.90;;;0.67;;
7479;SDS011;3781;42.272;22.658;2022-11-20T10:49:29;0.53;;;0.53;;
7479;SDS011;3781;42.272;22.658;2022-11-20T10:52:04;1.03;;;0.93;;
7479;SDS011;3781;42.272;22.658;2022-11-20T10:54:39;2.27;;;1.53;;
7479;SDS011;3781;42.272;22.658;2022-11-20T10:57:17;3.03;;;2.43;;
7479;SDS011;3781;42.272;22.658;2022-11-20T10:59:54;2.30;;;1.40;;
7479;SDS011;3781;42.272;22.658;2022-11-20T11:02:32;0.53;;;0.37;;
7479;SDS011;3781;42.272;22.658;2022-11-20T11:05:09;0.00;;;0.00;;
7479;SDS011;3781;42.272;22.658;2022-11-20T11:07:46;2.30;;;0.30;;
7479;SDS011;3781;42.272;22.658;2022-11-20T11:10:16;2.80;;;1.13;;
7479;SDS011;3781;42.272;22.658;2022-11-20T11:12:45;0.97;;;0.20;;
7479;SDS011;3781;42.272;22.658;2022-11-20T11:15:14;0.00;;;0.00;;
7479;SDS011;3781;42.272;22.658;2022-11-20T11:17:51;0.00;;;0.00;;
7479;SDS011;3781;42.272;22.658;2022-11-20T11:20:19;0.00;;;0.00;;
7479;SDS011;3781;42.272;22.658;2022-11-20T11:22:49;0.00;;;0.00;;
7479;SDS011;3781;42.272;22.658;2022-11-20T11:25:24;0.00;;;0.00;;
7479;SDS011;3781;42.272;22.658;2022-11-20T11:27:54;0.00;;;0.00;;
7479;SDS011;3781;42.272;22.658;2022-11-20T11:30:22;0.00;;;0.00;;
7479;SDS011;3781;42.272;22.658;2022-11-20T11:32:50;11.43;;;1.10;;
7479;SDS011;3781;42.272;22.658;2022-11-20T11:35:24;0.30;;;0.30;;
7479;SDS011;3781;42.272;22.658;2022-11-20T11:38:01;0.00;;;0.00;;
7479;SDS011;3781;42.272;22.658;2022-11-20T11:40:31;0.00;;;0.00;;
7479;SDS011;3781;42.272;22.658;2022-11-20T11:43:00;0.70;;;0.67;;
7479;SDS011;3781;42.272;22.658;2022-11-20T11:45:30;0.00;;;0.00;;
7479;SDS011;3781;42.272;22.658;2022-11-20T11:47:56;0.00;;;0.00;;
7479;SDS011;3781;42.272;22.658;2022-11-20T11:50:26;0.00;;;0.00;;
7479;SDS011;3781;42.272;22.658;2022-11-20T11:52:59;0.00;;;0.00;;
7479;SDS011;3781;42.272;22.658;2022-11-20T11:55:34;0.23;;;0.23;;
7479;SDS011;3781;42.272;22.658;2022-11-20T11:58:11;0.40;;;0.40;;
7479;SDS011;3781;42.272;22.658;2022-11-20T12:00:46;0.00;;;0.00;;
7479;SDS011;3781;42.272;22.658;2022-11-20T12:03:18;0.40;;;0.40;;
7479;SDS011;3781;42.272;22.658;2022-11-20T12:05:51;0.23;;;0.23;;
7479;SDS011;3781;42.272;22.658;2022-11-20T12:08:25;0.00;;;0.00;;
7479;SDS011;3781;42.272;22.658;2022-11-20T12:10:59;0.00;;;0.00;;
7479;SDS011;3781;42.272;22.658;2022-11-20T12:13:37;0.00;;;0.00;;
7479;SDS011;3781;42.272;22.658;2022-11-20T12:16:11;0.00;;;0.00;;
7479;SDS011;3781;42.272;22.658;2022-11-20T12:18:39;0.00;;;0.00;;
7479;SDS011;3781;42.272;22.658;2022-11-20T12:21:17;0.90;;;0.90;;
7479;SDS011;3781;42.272;22.658;2022-11-20T12:23:57;0.63;;;0.63;;
7479;SDS011;3781;42.272;22.658;2022-11-20T12:26:45;1.07;;;1.03;;
7479;SDS011;3781;42.272;22.658;2022-11-20T12:29:25;0.67;;;0.67;;
7479;SDS011;3781;42.272;22.658;2022-11-20T12:34:56;0.20;;;0.20;;
7479;SDS011;3781;42.272;22.658;2022-11-20T12:37:34;0.10;;;0.10;;
7479;SDS011;3781;42.272;22.658;2022-11-20T12:40:15;0.20;;;0.20;;
7479;SDS011;3781;42.272;22.658;2022-11-20T12:42:57;1.50;;;0.70;;
7479;SDS011;3781;42.272;22.658;2022-11-20T12:45:59;0.17;;;0.10;;
7479;SDS011;3781;42.272;22.658;2022-11-20T12:48:47;1.07;;;0.70;;
7479;SDS011;3781;42.272;22.658;2022-11-20T12:51:27;3.13;;;1.40;;
7479;SDS011;3781;42.272;22.658;2022-11-20T12:54:21;0.90;;;0.77;;
7479;SDS011;3781;42.272;22.658;2022-11-20T12:57:24;1.50;;;1.40;;
7479;SDS011;3781;42.272;22.658;2022-11-20T13:00:00;8.60;;;1.17;;
7479;SDS011;3781;42.272;22.658;2022-11-20T13:02:34;5.60;;;0.97;;
7479;SDS011;3781;42.272;22.658;2022-11-20T13:05:17;1.20;;;0.93;;
7479;SDS011;3781;42.272;22.658;2022-11-20T13:07:48;0.57;;;0.50;;
7479;SDS011;3781;42.272;22.658;2022-11-20T13:10:19;8.73;;;1.77;;
7479;SDS011;3781;42.272;22.658;2022-11-20T13:12:56;0.80;;;0.80;;
7479;SDS011;3781;42.272;22.658;2022-11-20T13:15:31;0.40;;;0.40;;
7479;SDS011;3781;42.272;22.658;2022-11-20T13:18:07;1.03;;;0.20;;
7479;SDS011;3781;42.272;22.658;2022-11-20T13:20:36;0.40;;;0.40;;
7479;SDS011;3781;42.272;22.658;2022-11-20T13:23:08;0.77;;;0.77;;
7479;SDS011;3781;42.272;22.658;2022-11-20T13:25:36;3.10;;;1.63;;
7479;SDS011;3781;42.272;22.658;2022-11-20T13:30:55;2.20;;;1.63;;
7479;SDS011;3781;42.272;22.658;2022-11-20T13:33:23;1.67;;;1.20;;
7479;SDS011;3781;42.272;22.658;2022-11-20T13:35:55;7.80;;;2.67;;
7479;SDS011;3781;42.272;22.658;2022-11-20T13:38:23;33.17;;;10.37;;
7479;SDS011;3781;42.272;22.658;2022-11-20T13:40:51;35.90;;;12.23;;
7479;SDS011;3781;42.272;22.658;2022-11-20T13:43:21;21.47;;;8.53;;
7479;SDS011;3781;42.272;22.658;2022-11-20T13:46:01;18.77;;;6.73;;
7479;SDS011;3781;42.272;22.658;2022-11-20T13:48:30;65.47;;;18.40;;
7479;SDS011;3781;42.272;22.658;2022-11-20T13:51:04;4.00;;;3.20;;
7479;SDS011;3781;42.272;22.658;2022-11-20T13:53:48;2.20;;;1.53;;
7479;SDS011;3781;42.272;22.658;2022-11-20T13:56:48;4.37;;;1.07;;
7479;SDS011;3781;42.272;22.658;2022-11-20T13:59:31;8.27;;;1.70;;
7479;SDS011;3781;42.272;22.658;2022-11-20T14:02:10;9.33;;;5.03;;
7479;SDS011;3781;42.272;22.658;2022-11-20T14:04:41;12.43;;;5.47;;
7479;SDS011;3781;42.272;22.658;2022-11-20T14:07:11;6.03;;;3.80;;
7479;SDS011;3781;42.272;22.658;2022-11-20T14:09:38;16.57;;;5.37;;
7479;SDS011;3781;42.272;22.658;2022-11-20T14:12:16;25.53;;;6.70;;
7479;SDS011;3781;42.272;22.658;2022-11-20T14:14:48;14.40;;;5.40;;
7479;SDS011;3781;42.272;22.658;2022-11-20T14:17:29;1.63;;;1.37;;
7479;SDS011;3781;42.272;22.658;2022-11-20T14:20:01;1.07;;;0.97;;
7479;SDS011;3781;42.272;22.658;2022-11-20T14:22:30;2.53;;;1.93;;
7479;SDS011;3781;42.272;22.658;2022-11-20T14:25:03;1.70;;;0.90;;
7479;SDS011;3781;42.272;22.658;2022-11-20T14:27:35;3.50;;;0.53;;
7479;SDS011;3781;42.272;22.658;2022-11-20T14:30:04;7.17;;;4.10;;
7479;SDS011;3781;42.272;22.658;2022-11-20T14:32:33;9.60;;;5.17;;
7479;SDS011;3781;42.272;22.658;2022-11-20T14:35:02;11.80;;;5.50;;
7479;SDS011;3781;42.272;22.658;2022-11-20T14:37:36;2.97;;;2.00;;
7479;SDS011;3781;42.272;22.658;2022-11-20T14:40:05;8.67;;;1.83;;
7479;SDS011;3781;42.272;22.658;2022-11-20T14:42:48;3.70;;;3.07;;
7479;SDS011;3781;42.272;22.658;2022-11-20T14:45:15;3.23;;;1.77;;
7479;SDS011;3781;42.272;22.658;2022-11-20T14:47:44;3.43;;;1.03;;
7479;SDS011;3781;42.272;22.658;2022-11-20T14:50:12;2.23;;;1.33;;
7479;SDS011;3781;42.272;22.658;2022-11-20T14:52:49;3.97;;;1.97;;
7479;SDS011;3781;42.272;22.658;2022-11-20T14:55:24;2.70;;;1.53;;
7479;SDS011;3781;42.272;22.658;2022-11-20T14:57:54;2.40;;;2.00;;
7479;SDS011;3781;42.272;22.658;2022-11-20T15:00:22;4.53;;;3.27;;
7479;SDS011;3781;42.272;22.658;2022-11-20T15:02:51;9.00;;;4.87;;
7479;SDS011;3781;42.272;22.658;2022-11-20T15:05:19;10.63;;;4.40;;
7479;SDS011;3781;42.272;22.658;2022-11-20T15:07:47;7.37;;;4.10;;
7479;SDS011;3781;42.272;22.658;2022-11-20T15:10:19;7.07;;;3.27;;
7479;SDS011;3781;42.272;22.658;2022-11-20T15:12:48;4.67;;;2.27;;
7479;SDS011;3781;42.272;22.658;2022-11-20T15:15:18;1.53;;;0.57;;
7479;SDS011;3781;42.272;22.658;2022-11-20T15:17:49;0.30;;;0.30;;
7479;SDS011;3781;42.272;22.658;2022-11-20T15:20:17;1.60;;;0.90;;
7479;SDS011;3781;42.272;22.658;2022-11-20T15:22:44;2.23;;;1.23;;
7479;SDS011;3781;42.272;22.658;2022-11-20T15:25:12;1.27;;;1.17;;